Time;durP1;ratioP1;P1;durP2;ratioP2;P2;SDS_P1;SDS_P2;PMS_P1;PMS_P2;Temp;Humidity;BMP_temperature;BMP_pressure;BME280_temperature;BME280_humidity;BME280_pressure;Samples;Min_cycle;Max_cycle;Signal;HPM_P1;HPM_P2
2021/04/14 06:08:04;;;;;;;5.68;4.32;;;;;;;;;;10606795;22;20250;-88
2021/04/14 06:13:05;;;;;;;7.43;5.40;;;;;;;;;;10493044;28;20063;-89
2021/04/14 06:18:06;;;;;;;8.73;4.68;;;;;;;;;;10492064;28;20053;-88
2021/04/14 06:23:09;;;;;;;6.75;5.30;;;;;;;;;;10493387;28;20094;-88
2021/04/14 06:28:10;;;;;;;6.05;4.78;;;;;;;;;;10494022;28;20048;-88
2021/04/14 06:33:11;;;;;;;4.97;3.83;;;;;;;;;;10494281;28;20028;-88
2021/04/14 06:38:15;;;;;;;8.15;4.88;;;;;;;;;;10494186;28;20025;-88
2021/04/14 06:43:28;;;;;;;4.88;4.25;;;;;;;;;;10501209;28;20039;-88
2021/04/14 06:48:48;;;;;;;5.85;4.85;;;;;;;;;;10517929;28;20009;-89
2021/04/14 06:54:01;;;;;;;5.65;4.63;;;;;;;;;;10504275;28;20032;-89
2021/04/14 06:59:04;;;;;;;7.07;5.32;;;;;;;;;;10492556;28;20035;-86
2021/04/14 07:04:11;;;;;;;6.70;3.20;;;;;;;;;;10491660;28;20048;-85
2021/04/14 07:09:26;;;;;;;6.68;3.35;;;;;;;;;;10470799;28;20055;-86
2021/04/14 07:14:27;;;;;;;6.50;3.83;;;;;;;;;;10469728;28;20021;-86
2021/04/14 07:19:37;;;;;;;4.70;3.40;;;;;;;;;;10470611;28;20521;-85
2021/04/14 07:24:38;;;;;;;;;;;;;;;;;;10467730;28;20036;-86
2021/04/14 07:29:41;;;;;;;5.35;3.05;;;;;;;;;;10467357;28;19911;-86
2021/04/14 07:34:46;;;;;;;4.93;3.55;;;;;;;;;;10468091;28;20025;-85
2021/04/14 07:39:52;;;;;;;4.43;3.20;;;;;;;;;;10467842;28;20100;-84
2021/04/14 07:44:53;;;;;;;5.07;3.53;;;;;;;;;;10466861;28;20036;-87
2021/04/14 07:49:56;;;;;;;4.63;3.38;;;;;;;;;;10466497;28;20075;-85
2021/04/14 07:54:58;;;;;;;4.82;3.38;;;;;;;;;;10467907;28;20029;-86
2021/04/14 08:00:13;;;;;;;4.13;3.25;;;;;;;;;;10464786;28;20029;-86
2021/04/14 08:05:26;;;;;;;3.92;2.78;;;;;;;;;;10463722;28;20487;-87
2021/04/14 08:10:29;;;;;;;5.45;3.30;;;;;;;;;;10471048;28;20047;-84
2021/04/14 08:15:35;;;;;;;5.30;2.70;;;;;;;;;;10464032;28;20081;-84
2021/04/14 08:20:38;;;;;;;6.10;4.97;;;;;;;;;;10466202;28;20025;-85
2021/04/14 08:25:44;;;;;;;4.05;3.33;;;;;;;;;;10466106;28;20032;-85
2021/04/14 08:30:45;;;;;;;4.60;2.95;;;;;;;;;;10465319;28;20052;-86
2021/04/14 08:35:48;;;;;;;3.95;2.60;;;;;;;;;;10463175;28;20510;-86
2021/04/14 08:40:51;;;;;;;7.35;4.60;;;;;;;;;;10466859;28;20044;-86
2021/04/14 08:45:52;;;;;;;5.25;3.25;;;;;;;;;;10466411;28;20032;-85
2021/04/14 08:50:56;;;;;;;4.25;2.20;;;;;;;;;;10470563;28;20020;-84
2021/04/14 08:55:57;;;;;;;4.03;2.22;;;;;;;;;;10470875;28;20127;-84
2021/04/14 09:00:58;;;;;;;3.42;2.30;;;;;;;;;;10470404;28;20036;-83
2021/04/14 09:05:59;;;;;;;3.75;2.03;;;;;;;;;;10465594;28;20033;-83
2021/04/14 09:11:02;;;;;;;2.92;1.98;;;;;;;;;;10466244;28;20118;-84
2021/04/14 09:16:05;;;;;;;7.28;3.22;;;;;;;;;;10467287;28;20047;-83
2021/04/14 09:21:14;;;;;;;4.32;2.60;;;;;;;;;;10464817;28;20029;-85
2021/04/14 09:26:16;;;;;;;3.33;2.10;;;;;;;;;;10464644;28;20044;-83
2021/04/14 09:31:39;;;;;;;3.85;2.08;;;;;;;;;;10465152;28;20360;-84
2021/04/14 09:36:46;;;;;;;4.78;4.25;;;;;;;;;;10463403;28;20479;-84
2021/04/14 09:41:47;;;;;;;4.18;2.60;;;;;;;;;;10465508;28;20052;-84
2021/04/14 09:46:58;;;;;;;5.30;3.67;;;;;;;;;;10466070;28;20360;-84
2021/04/14 09:52:01;;;;;;;4.13;2.30;;;;;;;;;;10466116;28;20024;-84
2021/04/14 09:57:04;;;;;;;3.65;2.50;;;;;;;;;;10464367;28;20040;-85
2021/04/14 10:02:17;;;;;;;4.32;3.17;;;;;;;;;;10464079;28;20025;-86
2021/04/14 10:07:20;;;;;;;4.32;3.40;;;;;;;;;;10468493;28;20075;-83
2021/04/14 10:12:27;;;;;;;3.90;3.47;;;;;;;;;;10475388;28;20029;-82
2021/04/14 10:17:29;;;;;;;3.58;2.70;;;;;;;;;;10471087;28;20078;-83
2021/04/14 10:22:37;;;;;;;3.95;2.25;;;;;;;;;;10470349;28;20407;-83
2021/04/14 10:27:38;;;;;;;7.90;6.80;;;;;;;;;;10473489;28;20021;-84
2021/04/14 10:32:39;;;;;;;7.68;6.88;;;;;;;;;;10468641;28;20029;-85
2021/04/14 10:37:45;;;;;;;4.90;3.90;;;;;;;;;;10470972;28;20053;-84
2021/04/14 10:42:47;;;;;;;4.65;4.10;;;;;;;;;;10491063;28;20035;-85
2021/04/14 10:47:51;;;;;;;3.90;2.50;;;;;;;;;;10494396;28;20143;-85
2021/04/14 10:52:58;;;;;;;5.13;3.05;;;;;;;;;;10475182;28;20383;-88
2021/04/14 10:58:00;;;;;;;3.05;2.47;;;;;;;;;;10479154;28;20060;-88
2021/04/14 11:03:06;;;;;;;6.03;5.25;;;;;;;;;;10467990;28;20113;-85
2021/04/14 11:08:09;;;;;;;6.15;4.85;;;;;;;;;;10467604;28;20040;-85
2021/04/14 11:13:18;;;;;;;5.35;4.88;;;;;;;;;;10469774;28;20060;-86
2021/04/14 11:18:29;;;;;;;2.90;2.58;;;;;;;;;;10469483;28;20100;-87
2021/04/14 11:23:41;;;;;;;3.17;2.30;;;;;;;;;;10467551;28;20029;-86
2021/04/14 11:28:47;;;;;;;4.68;3.95;;;;;;;;;;10468181;28;20048;-84
2021/04/14 11:33:48;;;;;;;5.15;4.10;;;;;;;;;;10469532;28;20052;-86
2021/04/14 11:38:58;;;;;;;3.45;2.78;;;;;;;;;;10469963;28;20032;-86
2021/04/14 11:43:59;;;;;;;5.28;4.57;;;;;;;;;;10471954;28;20025;-86
2021/04/14 11:49:05;;;;;;;6.32;5.72;;;;;;;;;;10471793;28;20550;-86
2021/04/14 11:54:25;;;;;;;4.13;3.03;;;;;;;;;;10471482;28;20123;-85
2021/04/14 11:59:30;;;;;;;5.05;4.30;;;;;;;;;;10471721;28;20032;-85
2021/04/14 12:04:32;;;;;;;2.65;2.05;;;;;;;;;;10468082;28;20045;-84
2021/04/14 12:09:32;;;;;;;2.38;2.10;;;;;;;;;;10468275;28;20064;-86
2021/04/14 12:14:33;;;;;;;4.57;3.90;;;;;;;;;;10467338;28;20387;-86
2021/04/14 12:19:34;;;;;;;3.33;2.50;;;;;;;;;;10465835;28;20025;-83
2021/04/14 12:24:36;;;;;;;3.63;2.97;;;;;;;;;;10466056;28;20040;-82
2021/04/14 12:29:37;;;;;;;4.47;4.07;;;;;;;;;;10466903;28;20025;-82
2021/04/14 12:34:38;;;;;;;5.35;4.35;;;;;;;;;;10466745;28;20059;-86
2021/04/14 12:39:40;;;;;;;4.80;4.25;;;;;;;;;;10464115;28;20100;-82
2021/04/14 12:44:41;;;;;;;3.78;3.40;;;;;;;;;;10465687;28;20040;-82
2021/04/14 12:49:42;;;;;;;4.47;3.88;;;;;;;;;;10465834;28;20046;-83
2021/04/14 12:54:43;;;;;;;3.83;3.53;;;;;;;;;;10467582;28;20055;-82
2021/04/14 12:59:47;;;;;;;4.25;3.13;;;;;;;;;;10469359;28;20026;-83
2021/04/14 13:04:57;;;;;;;6.10;5.50;;;;;;;;;;10467303;28;20035;-84
2021/04/14 13:10:00;;;;;;;5.43;4.03;;;;;;;;;;10467463;28;20037;-86
2021/04/14 13:15:01;;;;;;;4.50;4.00;;;;;;;;;;10468847;28;20090;-85
2021/04/14 13:20:03;;;;;;;3.80;2.92;;;;;;;;;;10466021;28;20548;-84
2021/04/14 13:25:09;;;;;;;5.15;4.65;;;;;;;;;;10480952;28;20017;-85
2021/04/14 13:30:22;;;;;;;6.18;5.53;;;;;;;;;;10501244;28;20394;-84
2021/04/14 13:35:29;;;;;;;6.45;5.47;;;;;;;;;;10501722;28;20037;-82
2021/04/14 13:40:38;;;;;;;5.45;4.93;;;;;;;;;;10486784;28;20029;-84
2021/04/14 13:45:48;;;;;;;3.00;2.30;;;;;;;;;;10474661;28;20506;-85
2021/04/14 13:50:54;;;;;;;1.83;1.60;;;;;;;;;;10484789;28;20025;-84
2021/04/14 13:56:04;;;;;;;2.15;1.50;;;;;;;;;;10489207;28;20040;-82
2021/04/14 14:01:06;;;;;;;3.78;2.03;;;;;;;;;;10480844;28;20027;-86
2021/04/14 14:06:11;;;;;;;2.83;1.77;;;;;;;;;;10471766;28;20064;-85
2021/04/14 14:11:18;;;;;;;2.70;1.75;;;;;;;;;;10475457;28;20033;-84
2021/04/14 14:16:26;;;;;;;2.30;1.50;;;;;;;;;;10482393;28;20123;-84
2021/04/14 14:21:28;;;;;;;3.13;2.00;;;;;;;;;;10483268;28;20128;-84
2021/04/14 14:26:31;;;;;;;3.42;1.65;;;;;;;;;;10483640;28;20455;-86
2021/04/14 14:31:37;;;;;;;1.55;1.00;;;;;;;;;;10478999;28;20120;-85
2021/04/14 14:36:48;;;;;;;2.85;1.70;;;;;;;;;;10483833;28;20025;-84
2021/04/14 14:42:12;;;;;;;4.72;3.00;;;;;;;;;;10492772;28;20025;-84
2021/04/14 14:47:15;;;;;;;2.22;1.58;;;;;;;;;;10510963;28;20097;-85
2021/04/14 14:52:16;;;;;;;2.40;1.40;;;;;;;;;;10510002;28;20033;-85
2021/04/14 14:57:21;;;;;;;1.67;1.00;;;;;;;;;;10473253;28;20040;-86
2021/04/14 15:02:25;;;;;;;1.02;0.82;;;;;;;;;;10475395;28;20025;-85
2021/04/14 15:07:27;;;;;;;1.58;1.10;;;;;;;;;;10476283;28;20047;-85
2021/04/14 15:12:28;;;;;;;1.42;0.85;;;;;;;;;;10475831;28;20036;-85
2021/04/14 15:17:29;;;;;;;3.05;1.17;;;;;;;;;;10473627;28;20532;-85
2021/04/14 15:22:33;;;;;;;1.73;0.98;;;;;;;;;;10473871;28;20025;-84
2021/04/14 15:27:37;;;;;;;1.45;0.63;;;;;;;;;;10473420;28;20021;-84
2021/04/14 15:32:40;;;;;;;0.95;0.65;;;;;;;;;;10465407;28;20051;-85
2021/04/14 15:37:45;;;;;;;1.50;0.63;;;;;;;;;;10465286;28;20028;-85
2021/04/14 15:42:52;;;;;;;2.17;0.90;;;;;;;;;;10462780;28;20032;-86
2021/04/14 15:47:53;;;;;;;1.05;0.60;;;;;;;;;;10463985;28;20479;-85
2021/04/14 15:52:57;;;;;;;2.63;0.95;;;;;;;;;;10461996;28;20024;-86
2021/04/14 15:57:59;;;;;;;1.75;0.98;;;;;;;;;;10468803;28;20025;-85
2021/04/14 16:03:00;;;;;;;0.90;0.70;;;;;;;;;;10464005;28;20033;-86
2021/04/14 16:08:01;;;;;;;1.48;0.90;;;;;;;;;;10460256;28;20033;-85
2021/04/14 16:13:03;;;;;;;2.17;0.80;;;;;;;;;;10460568;28;20087;-86
2021/04/14 16:18:17;;;;;;;2.13;0.80;;;;;;;;;;10460697;28;20111;-84
2021/04/14 16:23:24;;;;;;;2.80;0.80;;;;;;;;;;10462608;28;20057;-84
2021/04/14 16:28:26;;;;;;;1.63;0.68;;;;;;;;;;10465303;28;20055;-84
2021/04/14 16:33:28;;;;;;;1.60;0.60;;;;;;;;;;10459811;28;20025;-83
2021/04/14 16:38:29;;;;;;;0.98;0.70;;;;;;;;;;10458768;28;20467;-84
2021/04/14 16:43:36;;;;;;;1.00;0.70;;;;;;;;;;10459508;28;20028;-85
2021/04/14 16:48:37;;;;;;;2.35;1.02;;;;;;;;;;10458524;28;20021;-84
2021/04/14 16:53:38;;;;;;;2.42;0.88;;;;;;;;;;10457471;28;20116;-83
2021/04/14 16:58:39;;;;;;;1.98;0.80;;;;;;;;;;10460223;28;20112;-83
2021/04/14 17:03:40;;;;;;;3.45;1.27;;;;;;;;;;10438622;28;20444;-83
2021/04/14 17:08:41;;;;;;;2.53;1.00;;;;;;;;;;10416390;28;20140;-83
2021/04/14 17:13:42;;;;;;;1.92;1.20;;;;;;;;;;10417256;28;20025;-83
2021/04/14 17:18:43;;;;;;;1.70;0.60;;;;;;;;;;10417359;28;20120;-83
2021/04/14 17:23:44;;;;;;;1.77;0.80;;;;;;;;;;10424323;28;20041;-84
2021/04/14 17:28:45;;;;;;;1.23;0.80;;;;;;;;;;10435199;28;20047;-84
2021/04/14 17:33:46;;;;;;;1.70;0.80;;;;;;;;;;10416176;28;20029;-83
2021/04/14 17:38:47;;;;;;;2.42;0.90;;;;;;;;;;10415992;28;20096;-83
2021/04/14 17:43:48;;;;;;;1.67;0.70;;;;;;;;;;10415400;28;20056;-83
2021/04/14 17:48:49;;;;;;;1.95;0.80;;;;;;;;;;10416544;28;20064;-83
2021/04/14 17:53:50;;;;;;;1.20;0.57;;;;;;;;;;10413885;28;20128;-83
2021/04/14 17:58:52;;;;;;;2.38;0.73;;;;;;;;;;10414196;28;20506;-84
2021/04/14 18:03:54;;;;;;;1.45;0.70;;;;;;;;;;10415353;28;20056;-83
2021/04/14 18:08:55;;;;;;;1.83;0.93;;;;;;;;;;10417841;28;20038;-83
2021/04/14 18:13:56;;;;;;;3.08;0.68;;;;;;;;;;10414396;28;20456;-83
2021/04/14 18:18:57;;;;;;;0.85;0.70;;;;;;;;;;10414503;28;20117;-83
2021/04/14 18:23:58;;;;;;;1.13;0.80;;;;;;;;;;10414347;28;20066;-83
2021/04/14 18:28:59;;;;;;;1.30;0.70;;;;;;;;;;10415140;28;20025;-83
2021/04/14 18:34:00;;;;;;;0.93;0.60;;;;;;;;;;10424959;28;20498;-83
2021/04/14 18:39:01;;;;;;;2.00;1.10;;;;;;;;;;10413082;28;20084;-83
2021/04/14 18:44:02;;;;;;;0.80;0.68;;;;;;;;;;10416957;28;20049;-83
2021/04/14 18:49:04;;;;;;;2.08;0.77;;;;;;;;;;10438620;28;20093;-84
2021/04/14 18:54:05;;;;;;;1.58;0.82;;;;;;;;;;10448707;28;20045;-84
2021/04/14 18:59:06;;;;;;;3.03;2.05;;;;;;;;;;10429682;28;20061;-83
2021/04/14 19:04:07;;;;;;;1.60;0.95;;;;;;;;;;10419724;28;20040;-83
2021/04/14 19:09:09;;;;;;;1.50;1.00;;;;;;;;;;10419402;28;20033;-83
2021/04/14 19:14:10;;;;;;;1.88;1.00;;;;;;;;;;10419644;28;20394;-83
2021/04/14 19:19:13;;;;;;;1.80;1.10;;;;;;;;;;10419372;28;20112;-83
2021/04/14 19:24:15;;;;;;;2.35;1.23;;;;;;;;;;10421545;28;20049;-83
2021/04/14 19:29:16;;;;;;;1.45;0.90;;;;;;;;;;10419669;28;20064;-84
2021/04/14 19:34:17;;;;;;;1.52;1.30;;;;;;;;;;10427750;28;20036;-85
2021/04/14 19:39:18;;;;;;;2.08;1.30;;;;;;;;;;10444553;28;20056;-84
2021/04/14 19:44:20;;;;;;;1.90;0.88;;;;;;;;;;10418799;28;20029;-84
2021/04/14 19:49:21;;;;;;;2.85;1.52;;;;;;;;;;10419719;28;20076;-84
2021/04/14 19:54:22;;;;;;;2.47;1.30;;;;;;;;;;10418969;28;20120;-85
2021/04/14 19:59:23;;;;;;;2.17;1.30;;;;;;;;;;10417580;28;20468;-84
2021/04/14 20:04:25;;;;;;;1.85;1.20;;;;;;;;;;10418526;28;20037;-83
2021/04/14 20:09:26;;;;;;;2.03;1.17;;;;;;;;;;10417802;28;20399;-84
2021/04/14 20:14:27;;;;;;;1.50;1.10;;;;;;;;;;10418266;28;20035;-83
2021/04/14 20:19:28;;;;;;;2.03;1.50;;;;;;;;;;10418342;28;20028;-84
